createdAt,value
2022-11-06T00:01:13.014Z,6.34
2022-11-06T00:03:42.201Z,6.33
2022-11-06T00:06:31.216Z,6.33
2022-11-06T00:09:01.114Z,6.33
2022-11-06T00:11:30.350Z,6.30
2022-11-06T00:14:00.199Z,6.27
2022-11-06T00:16:29.190Z,6.24
2022-11-06T00:19:00.125Z,6.20
2022-11-06T00:21:30.255Z,6.16
2022-11-06T00:24:00.606Z,6.14
2022-11-06T00:26:30.883Z,6.12
2022-11-06T00:28:59.765Z,6.11
2022-11-06T00:31:30.561Z,6.10
2022-11-06T00:34:00.496Z,6.09
2022-11-06T00:36:32.813Z,6.08
2022-11-06T00:39:01.325Z,6.06
2022-11-06T00:41:29.589Z,6.03
2022-11-06T00:44:00.711Z,5.99
2022-11-06T00:46:29.978Z,5.95
2022-11-06T00:48:58.189Z,5.91
2022-11-06T00:51:39.351Z,5.85
2022-11-06T00:54:11.475Z,5.80
2022-11-06T00:56:40.273Z,5.77
2022-11-06T00:59:12.523Z,5.76
2022-11-06T01:01:44.070Z,5.76
2022-11-06T01:04:15.135Z,5.73
2022-11-06T01:06:46.206Z,5.68
2022-11-06T01:09:17.245Z,5.61
2022-11-06T01:14:43.352Z,5.51
2022-11-06T01:17:12.111Z,5.49
2022-11-06T01:19:40.325Z,5.46
2022-11-06T01:22:08.713Z,5.44
2022-11-06T01:24:36.864Z,5.41
2022-11-06T01:27:25.443Z,5.39
2022-11-06T01:29:53.235Z,5.34
2022-11-06T01:32:21.265Z,5.31
2022-11-06T01:34:51.147Z,5.25
2022-11-06T01:37:19.493Z,5.20
2022-11-06T01:39:50.550Z,5.14
2022-11-06T01:42:20.225Z,5.08
2022-11-06T01:45:29.514Z,5.02
2022-11-06T01:47:57.826Z,4.96
2022-11-06T01:50:27.157Z,4.92
2022-11-06T01:52:56.201Z,4.89
2022-11-06T01:55:30.502Z,4.85
2022-11-06T01:58:01.803Z,4.78
2022-11-06T02:05:00.281Z,4.58
2022-11-06T02:07:28.681Z,4.55
2022-11-06T02:09:56.839Z,4.52
2022-11-06T02:12:27.867Z,4.50
2022-11-06T02:15:21.414Z,4.49
2022-11-06T02:18:11.687Z,4.44
2022-11-06T02:21:15.404Z,4.39
2022-11-06T02:24:17.734Z,4.33
2022-11-06T02:27:13.707Z,4.26
2022-11-06T02:29:47.934Z,4.19
2022-11-06T02:32:32.367Z,4.14
2022-11-06T02:35:03.798Z,4.10
2022-11-06T02:37:37.046Z,4.05
2022-11-06T02:40:08.927Z,4.03
2022-11-06T02:42:45.865Z,4.01
2022-11-06T02:45:17.467Z,3.98
2022-11-06T02:47:49.171Z,3.98
2022-11-06T02:50:35.067Z,3.96
2022-11-06T02:53:06.409Z,3.95
2022-11-06T02:55:40.256Z,3.93
2022-11-06T02:58:14.442Z,3.92
2022-11-06T03:00:53.212Z,3.90
2022-11-06T03:03:28.193Z,3.87
2022-11-06T03:06:07.285Z,3.82
2022-11-06T03:09:02.739Z,3.76
2022-11-06T03:11:38.976Z,3.73
2022-11-06T03:14:10.126Z,3.70
2022-11-06T03:16:54.946Z,3.67
2022-11-06T03:19:42.789Z,3.67
2022-11-06T03:22:30.878Z,3.68
2022-11-06T03:25:05.771Z,3.70
2022-11-06T03:27:40.597Z,3.71
2022-11-06T03:30:16.498Z,3.70
2022-11-06T03:32:53.971Z,3.69
2022-11-06T03:35:22.279Z,3.69
2022-11-06T03:37:54.304Z,3.70
2022-11-06T03:40:26.033Z,3.71
2022-11-06T03:43:00.740Z,3.70
2022-11-06T03:45:32.326Z,3.71
2022-11-06T03:48:09.337Z,3.71
2022-11-06T03:50:54.335Z,3.71
2022-11-06T03:53:35.226Z,3.71
2022-11-06T03:56:08.669Z,3.71
2022-11-06T03:58:40.838Z,3.70
2022-11-06T04:01:10.986Z,3.70
2022-11-06T04:03:54.070Z,3.70
2022-11-06T04:06:29.165Z,3.70
2022-11-06T04:09:22.990Z,3.67
2022-11-06T04:12:10.708Z,3.65
2022-11-06T04:14:45.266Z,3.63
2022-11-06T04:17:15.383Z,3.60
2022-11-06T04:19:50.607Z,3.59
2022-11-06T04:22:33.648Z,3.57
2022-11-06T04:25:41.590Z,3.55
2022-11-06T04:28:18.451Z,3.54
2022-11-06T04:30:51.191Z,3.53
2022-11-06T04:33:45.369Z,3.55
2022-11-06T04:36:37.660Z,3.55
2022-11-06T04:39:38.941Z,3.55
2022-11-06T04:42:14.063Z,3.56
2022-11-06T04:44:49.333Z,3.54
2022-11-06T04:47:20.662Z,3.52
2022-11-06T04:49:52.276Z,3.50
2022-11-06T04:52:25.647Z,3.48
2022-11-06T04:54:56.317Z,3.46
2022-11-06T04:57:25.806Z,3.42
2022-11-06T04:59:54.427Z,3.35
2022-11-06T05:02:23.046Z,3.31
2022-11-06T05:04:51.406Z,3.30
2022-11-06T05:07:19.402Z,3.28
2022-11-06T05:09:47.520Z,3.22
2022-11-06T05:12:15.770Z,3.19
2022-11-06T05:14:43.868Z,3.14
2022-11-06T05:17:11.903Z,3.11
2022-11-06T05:19:40.284Z,3.11
2022-11-06T05:22:28.202Z,3.12
2022-11-06T05:24:56.543Z,3.14
2022-11-06T05:27:24.583Z,3.16
2022-11-06T05:29:52.646Z,3.17
2022-11-06T05:32:21.016Z,3.19
2022-11-06T05:34:49.053Z,3.22
2022-11-06T05:37:17.178Z,3.21
2022-11-06T05:39:51.504Z,3.17
2022-11-06T05:42:19.655Z,3.15
2022-11-06T05:44:47.992Z,3.13
2022-11-06T05:47:16.078Z,3.09
2022-11-06T05:49:44.236Z,3.07
2022-11-06T05:52:12.473Z,3.07
2022-11-06T05:54:40.466Z,3.10
2022-11-06T05:57:08.615Z,3.12
2022-11-06T05:59:37.317Z,3.11
2022-11-06T06:02:05.438Z,3.07
2022-11-06T06:04:33.522Z,3.02
2022-11-06T06:07:01.745Z,3.00
2022-11-06T06:09:30.449Z,3.03
2022-11-06T06:11:58.441Z,3.03
2022-11-06T06:14:26.643Z,3.04
2022-11-06T06:16:54.764Z,3.06
2022-11-06T06:19:22.757Z,3.08
2022-11-06T06:21:50.862Z,3.11
2022-11-06T06:24:18.993Z,3.16
2022-11-06T06:26:47.226Z,3.18
2022-11-06T06:29:16.705Z,3.19
2022-11-06T06:31:45.112Z,3.21
2022-11-06T06:34:13.176Z,3.22
2022-11-06T06:36:41.493Z,3.22
2022-11-06T06:39:09.834Z,3.25
2022-11-06T06:41:38.492Z,3.33
2022-11-06T06:44:06.827Z,3.39
2022-11-06T06:46:34.897Z,3.42
2022-11-06T06:49:03.092Z,3.47
2022-11-06T06:51:31.302Z,3.51
2022-11-06T06:53:59.412Z,3.57
2022-11-06T06:56:27.423Z,3.59
2022-11-06T06:58:56.093Z,3.60
2022-11-06T07:01:24.588Z,3.67
2022-11-06T07:03:52.897Z,3.70
2022-11-06T07:06:21.658Z,3.70
2022-11-06T07:08:49.653Z,3.71
2022-11-06T07:11:18.565Z,3.79
2022-11-06T07:13:46.981Z,3.85
2022-11-06T07:16:15.139Z,3.92
2022-11-06T07:18:43.235Z,3.98
2022-11-06T07:21:12.788Z,3.98
2022-11-06T07:23:41.144Z,3.99
2022-11-06T07:26:09.546Z,4.05
2022-11-06T07:28:37.929Z,4.12
2022-11-06T07:31:07.883Z,4.16
2022-11-06T07:33:36.235Z,4.18
2022-11-06T07:36:10.064Z,4.24
2022-11-06T07:38:39.719Z,4.31
2022-11-06T07:41:14.259Z,4.39
2022-11-06T07:43:43.614Z,4.51
2022-11-06T07:46:13.709Z,4.63
2022-11-06T07:48:41.741Z,4.75
2022-11-06T07:51:10.865Z,4.85
2022-11-06T07:53:39.260Z,4.92
2022-11-06T07:56:08.854Z,5.02
2022-11-06T07:58:37.280Z,5.09
2022-11-06T08:01:06.287Z,5.10
2022-11-06T08:03:34.545Z,5.05
2022-11-06T08:06:05.271Z,5.10
2022-11-06T08:08:33.897Z,5.21
2022-11-06T08:11:07.547Z,5.36
2022-11-06T08:13:36.234Z,5.51
2022-11-06T08:16:13.269Z,5.64
2022-11-06T08:18:41.903Z,5.76
2022-11-06T08:21:09.921Z,5.85
2022-11-06T08:23:38.025Z,5.86
2022-11-06T08:26:07.414Z,5.92
2022-11-06T08:28:35.685Z,6.01
2022-11-06T08:31:08.394Z,6.12
2022-11-06T08:33:38.612Z,6.22
2022-11-06T08:36:08.619Z,6.32
2022-11-06T08:38:36.974Z,6.38
2022-11-06T08:41:10.726Z,6.40
2022-11-06T08:43:39.977Z,6.34
2022-11-06T08:46:09.820Z,6.32
2022-11-06T08:48:38.102Z,6.37
2022-11-06T08:51:06.704Z,6.48
2022-11-06T08:53:35.292Z,6.57
2022-11-06T08:56:04.841Z,6.66
2022-11-06T08:58:32.971Z,6.67
2022-11-06T09:01:01.035Z,6.74
2022-11-06T09:03:29.126Z,6.86
2022-11-06T09:05:57.707Z,6.99
2022-11-06T09:08:26.521Z,7.12
2022-11-06T09:10:58.462Z,7.31
2022-11-06T09:13:27.370Z,7.41
2022-11-06T09:15:55.535Z,7.51
2022-11-06T09:18:23.638Z,7.63
2022-11-06T09:20:56.339Z,7.74
2022-11-06T09:23:24.794Z,7.84
2022-11-06T09:25:52.990Z,7.95
2022-11-06T09:28:21.148Z,8.04
2022-11-06T09:30:49.240Z,8.11
2022-11-06T09:33:18.316Z,8.20
2022-11-06T09:35:46.632Z,8.32
2022-11-06T09:38:17.371Z,8.42
2022-11-06T09:40:52.717Z,8.49
2022-11-06T09:46:32.056Z,8.77
2022-11-06T09:49:03.129Z,8.89
2022-11-06T09:51:52.078Z,8.89
2022-11-06T09:54:27.573Z,8.89
2022-11-06T09:57:06.450Z,8.95
2022-11-06T09:59:37.687Z,9.00
2022-11-06T10:02:20.307Z,9.01
2022-11-06T10:05:18.740Z,9.01
2022-11-06T10:07:52.015Z,9.10
2022-11-06T10:10:26.808Z,9.21
2022-11-06T10:13:04.675Z,9.34
2022-11-06T10:15:45.177Z,9.46
2022-11-06T10:18:38.361Z,9.46
2022-11-06T10:21:12.834Z,9.43
2022-11-06T10:23:51.031Z,9.50
2022-11-06T10:26:28.673Z,9.58
2022-11-06T10:29:18.135Z,9.67
2022-11-06T10:32:34.540Z,9.76
2022-11-06T10:35:12.088Z,9.83
2022-11-06T10:37:48.015Z,9.84
2022-11-06T10:40:21.596Z,9.90
2022-11-06T10:43:09.072Z,9.99
2022-11-06T10:45:41.451Z,10.04
2022-11-06T10:48:29.868Z,10.13
2022-11-06T10:51:34.508Z,10.24
2022-11-06T10:54:14.312Z,10.32
2022-11-06T10:56:57.347Z,10.36
2022-11-06T10:59:25.682Z,10.37
2022-11-06T11:01:54.440Z,10.37
2022-11-06T11:04:22.661Z,10.30
2022-11-06T11:06:50.805Z,10.18
2022-11-06T11:09:28.722Z,10.18
2022-11-06T11:12:00.590Z,10.14
2022-11-06T11:14:31.276Z,10.07
2022-11-06T11:17:01.555Z,10.06
2022-11-06T11:19:39.012Z,9.99
2022-11-06T11:22:16.046Z,9.96
2022-11-06T11:25:08.686Z,9.89
2022-11-06T11:27:46.074Z,9.90
2022-11-06T11:30:23.458Z,9.87
2022-11-06T11:32:52.585Z,9.74
2022-11-06T11:35:27.326Z,9.62
2022-11-06T11:38:26.136Z,9.52
2022-11-06T11:41:08.007Z,9.47
2022-11-06T11:43:36.185Z,9.40
2022-11-06T11:46:05.427Z,9.33
2022-11-06T11:48:45.741Z,9.36
2022-11-06T11:51:19.709Z,9.43
2022-11-06T11:53:47.944Z,9.53
2022-11-06T11:56:36.210Z,9.62
2022-11-06T11:59:11.096Z,9.70
2022-11-06T12:01:40.913Z,9.77
2022-11-06T12:04:19.745Z,9.79
2022-11-06T12:06:54.805Z,9.81
2022-11-06T12:09:24.165Z,9.79
2022-11-06T12:11:54.659Z,9.81
2022-11-06T12:14:22.632Z,9.81
2022-11-06T12:16:53.794Z,9.78
2022-11-06T12:19:26.461Z,9.76
2022-11-06T12:22:02.119Z,9.73
2022-11-06T12:24:43.396Z,9.70
2022-11-06T12:27:18.554Z,9.68
2022-11-06T12:29:58.055Z,9.67
2022-11-06T12:32:31.976Z,9.67
2022-11-06T12:35:27.875Z,9.66
2022-11-06T12:38:26.722Z,9.69
2022-11-06T12:41:01.366Z,9.71
2022-11-06T12:43:37.509Z,9.73
2022-11-06T12:46:36.564Z,9.71
2022-11-06T12:49:32.400Z,9.69
2022-11-06T12:52:25.832Z,9.67
2022-11-06T12:55:18.037Z,9.64
2022-11-06T12:58:07.547Z,9.61
2022-11-06T13:00:57.148Z,9.61
2022-11-06T13:03:28.418Z,9.58
2022-11-06T13:05:59.278Z,9.54
2022-11-06T13:08:27.363Z,9.51
2022-11-06T13:11:25.045Z,9.48
2022-11-06T13:14:00.848Z,9.46
2022-11-06T13:17:01.181Z,9.43
2022-11-06T13:19:29.355Z,9.39
2022-11-06T13:22:07.745Z,9.37
2022-11-06T13:24:51.722Z,9.35
2022-11-06T13:27:39.720Z,9.33
2022-11-06T13:30:24.562Z,9.30
2022-11-06T13:33:10.950Z,9.26
2022-11-06T13:35:43.373Z,9.24
2022-11-06T13:38:19.467Z,9.23
2022-11-06T13:40:53.730Z,9.21
2022-11-06T13:43:45.858Z,9.19
2022-11-06T13:46:45.001Z,9.15
2022-11-06T13:49:46.616Z,9.08
2022-11-06T13:52:51.020Z,9.00
2022-11-06T13:55:36.114Z,8.92
2022-11-06T13:58:29.123Z,8.84
2022-11-06T14:01:19.030Z,8.74
2022-11-06T14:04:04.276Z,8.68
2022-11-06T14:06:36.799Z,8.63
2022-11-06T14:09:19.154Z,8.57
2022-11-06T14:11:55.215Z,8.46
2022-11-06T14:14:26.367Z,8.36
2022-11-06T14:17:17.720Z,8.31
2022-11-06T14:19:50.214Z,8.21
2022-11-06T14:22:28.344Z,8.13
2022-11-06T14:25:01.480Z,8.06
2022-11-06T14:27:30.098Z,7.99
2022-11-06T14:30:07.966Z,7.90
2022-11-06T14:32:41.153Z,7.82
2022-11-06T14:35:28.835Z,7.73
2022-11-06T14:38:17.671Z,7.66
2022-11-06T14:40:46.172Z,7.59
2022-11-06T14:43:26.487Z,7.55
2022-11-06T14:46:00.480Z,7.48
2022-11-06T14:48:33.900Z,7.41
2022-11-06T14:51:05.765Z,7.30
2022-11-06T14:53:48.426Z,7.20
2022-11-06T14:56:24.693Z,7.09
2022-11-06T14:59:04.248Z,7.00
2022-11-06T15:01:35.474Z,6.92
2022-11-06T15:04:05.916Z,6.85
2022-11-06T15:06:33.967Z,6.78
2022-11-06T15:09:06.754Z,6.70
2022-11-06T15:11:47.439Z,6.61
2022-11-06T15:14:15.925Z,6.52
2022-11-06T15:16:50.736Z,6.45
2022-11-06T15:19:23.705Z,6.37
2022-11-06T15:21:58.011Z,6.27
2022-11-06T15:24:34.576Z,6.17
2022-11-06T15:27:12.899Z,6.08
2022-11-06T15:29:43.262Z,5.97
2022-11-06T15:32:19.579Z,5.89
2022-11-06T15:34:59.836Z,5.84
2022-11-06T15:37:36.196Z,5.79
2022-11-06T15:40:05.515Z,5.74
2022-11-06T15:42:37.255Z,5.68
2022-11-06T15:45:15.762Z,5.63
2022-11-06T15:48:23.454Z,5.59
2022-11-06T15:50:51.478Z,5.55
2022-11-06T15:53:26.248Z,5.50
2022-11-06T15:56:00.276Z,5.42
2022-11-06T15:58:37.464Z,5.31
2022-11-06T16:01:07.897Z,5.21
2022-11-06T16:03:53.590Z,5.15
2022-11-06T16:06:21.866Z,5.09
2022-11-06T16:08:51.259Z,5.03
2022-11-06T16:11:20.679Z,4.97
2022-11-06T16:13:49.686Z,4.90
2022-11-06T16:16:42.234Z,4.85
2022-11-06T16:19:40.177Z,4.76
2022-11-06T16:22:13.339Z,4.70
2022-11-06T16:24:50.673Z,4.64
2022-11-06T16:27:19.836Z,4.60
2022-11-06T16:29:52.594Z,4.57
2022-11-06T16:32:23.762Z,4.53
2022-11-06T16:34:51.879Z,4.52
2022-11-06T16:37:20.918Z,4.49
2022-11-06T16:39:53.681Z,4.49
2022-11-06T16:42:30.686Z,4.50
2022-11-06T16:45:03.164Z,4.49
2022-11-06T16:47:31.312Z,4.47
2022-11-06T16:50:01.947Z,4.45
2022-11-06T16:52:39.315Z,4.41
2022-11-06T16:55:17.388Z,4.37
2022-11-06T16:57:53.557Z,4.35
2022-11-06T17:00:23.737Z,4.32
2022-11-06T17:02:55.743Z,4.28
2022-11-06T17:05:33.712Z,4.24
2022-11-06T17:08:18.497Z,4.21
2022-11-06T17:10:48.146Z,4.18
2022-11-06T17:13:28.122Z,4.15
2022-11-06T17:15:59.206Z,4.10
2022-11-06T17:18:35.983Z,4.05
2022-11-06T17:21:16.102Z,3.99
2022-11-06T17:23:45.946Z,3.93
2022-11-06T17:26:19.973Z,3.90
2022-11-06T17:28:49.479Z,3.89
2022-11-06T17:31:20.210Z,3.89
2022-11-06T17:33:48.898Z,3.90
2022-11-06T17:36:28.740Z,3.89
2022-11-06T17:38:58.010Z,3.87
2022-11-06T17:41:32.958Z,3.85
2022-11-06T17:44:03.092Z,3.83
2022-11-06T17:46:37.222Z,3.80
2022-11-06T17:49:06.522Z,3.79
2022-11-06T17:51:50.669Z,3.80
2022-11-06T17:54:25.502Z,3.80
2022-11-06T17:56:58.164Z,3.81
2022-11-06T17:59:26.824Z,3.83
2022-11-06T18:01:55.329Z,3.87
2022-11-06T18:04:26.630Z,3.90
2022-11-06T18:06:54.956Z,3.93
2022-11-06T18:09:24.281Z,3.95
2022-11-06T18:11:54.199Z,3.99
2022-11-06T18:14:24.805Z,4.05
2022-11-06T18:16:53.922Z,4.12
2022-11-06T18:19:24.196Z,4.16
2022-11-06T18:21:53.961Z,4.23
2022-11-06T18:24:22.709Z,4.27
2022-11-06T18:26:51.823Z,4.26
2022-11-06T18:29:19.991Z,4.24
2022-11-06T18:31:48.152Z,4.20
2022-11-06T18:34:20.507Z,4.18
2022-11-06T18:36:50.623Z,4.17
2022-11-06T18:39:19.706Z,4.17
2022-11-06T18:41:48.262Z,4.17
2022-11-06T18:44:18.230Z,4.18
2022-11-06T18:46:47.877Z,4.20
2022-11-06T18:49:16.040Z,4.23
2022-11-06T18:51:44.277Z,4.27
2022-11-06T18:54:12.892Z,4.32
2022-11-06T18:56:41.534Z,4.36
2022-11-06T18:59:15.340Z,4.40
2022-11-06T19:01:43.942Z,4.45
2022-11-06T19:04:12.305Z,4.49
2022-11-06T19:06:40.894Z,4.50
2022-11-06T19:09:09.884Z,4.50
2022-11-06T19:11:38.492Z,4.49
2022-11-06T19:14:06.723Z,4.46
2022-11-06T19:16:34.887Z,4.45
2022-11-06T19:19:05.689Z,4.43
2022-11-06T19:21:34.957Z,4.41
2022-11-06T19:24:05.978Z,4.39
2022-11-06T19:26:36.395Z,4.36
2022-11-06T19:29:08.291Z,4.34
2022-11-06T19:31:38.663Z,4.31
2022-11-06T19:34:08.375Z,4.31
2022-11-06T19:36:36.640Z,4.31
2022-11-06T19:39:05.841Z,4.31
2022-11-06T19:41:34.438Z,4.30
2022-11-06T19:44:02.684Z,4.27
2022-11-06T19:46:35.873Z,4.25
2022-11-06T19:49:07.000Z,4.24
2022-11-06T19:51:41.078Z,4.23
2022-11-06T19:54:11.349Z,4.22
2022-11-06T19:57:27.189Z,4.20
2022-11-06T19:59:28.049Z,4.19
2022-11-06T20:01:56.437Z,4.19
2022-11-06T20:04:24.931Z,4.19
2022-11-06T20:06:54.359Z,4.18
2022-11-06T20:09:22.951Z,4.15
2022-11-06T20:11:52.932Z,4.12
2022-11-06T20:14:22.043Z,4.09
2022-11-06T20:16:50.597Z,4.08
2022-11-06T20:19:19.773Z,4.06
2022-11-06T20:21:48.529Z,4.05
2022-11-06T20:24:16.624Z,4.04
2022-11-06T20:26:45.002Z,4.04
2022-11-06T20:29:13.343Z,4.06
2022-11-06T20:31:42.370Z,4.07
2022-11-06T20:34:10.388Z,4.06
2022-11-06T20:36:38.801Z,4.05
2022-11-06T20:39:07.174Z,4.05
2022-11-06T20:41:35.314Z,4.03
2022-11-06T20:44:04.462Z,4.02
2022-11-06T20:46:32.759Z,3.99
2022-11-06T20:49:00.851Z,3.96
2022-11-06T20:51:31.832Z,3.91
2022-11-06T20:54:00.737Z,3.87
2022-11-06T20:56:31.911Z,3.81
2022-11-06T20:59:00.080Z,3.74
2022-11-06T21:01:29.647Z,3.67
2022-11-06T21:03:58.567Z,3.61
2022-11-06T21:06:28.168Z,3.60
2022-11-06T21:08:56.690Z,3.60
2022-11-06T21:11:27.651Z,3.62
2022-11-06T21:13:56.520Z,3.66
2022-11-06T21:16:34.057Z,3.68
2022-11-06T21:19:03.583Z,3.74
2022-11-06T21:21:34.053Z,3.78
2022-11-06T21:24:03.155Z,3.84
2022-11-06T21:26:33.753Z,3.91
2022-11-06T21:29:04.505Z,3.96
2022-11-06T21:31:33.412Z,4.03
2022-11-06T21:34:03.202Z,4.10
2022-11-06T21:36:34.120Z,4.15
2022-11-06T21:39:07.656Z,4.21
2022-11-06T21:41:36.754Z,4.26
2022-11-06T21:44:06.304Z,4.30
2022-11-06T21:46:34.834Z,4.34
2022-11-06T21:49:03.155Z,4.37
2022-11-06T21:51:32.558Z,4.42
2022-11-06T21:54:19.730Z,4.47
2022-11-06T21:56:49.727Z,4.54
2022-11-06T21:59:19.933Z,4.59
2022-11-06T22:01:48.104Z,4.63
2022-11-06T22:04:16.316Z,4.63
2022-11-06T22:06:44.709Z,4.60
2022-11-06T22:09:14.235Z,4.58
2022-11-06T22:11:44.261Z,4.55
2022-11-06T22:14:14.985Z,4.52
2022-11-06T22:16:45.746Z,4.48
2022-11-06T22:19:15.466Z,4.44
2022-11-06T22:21:44.715Z,4.40
2022-11-06T22:24:14.026Z,4.37
2022-11-06T22:26:42.251Z,4.31
2022-11-06T22:29:14.312Z,4.26
2022-11-06T22:31:42.876Z,4.22
2022-11-06T22:34:12.432Z,4.20
2022-11-06T22:36:41.310Z,4.17
2022-11-06T22:39:10.786Z,4.13
2022-11-06T22:41:39.609Z,4.08
2022-11-06T22:44:08.245Z,4.00
2022-11-06T22:46:36.946Z,3.94
2022-11-06T22:49:05.435Z,3.91
2022-11-06T22:51:34.465Z,3.91
2022-11-06T22:54:04.017Z,3.94
2022-11-06T22:56:32.749Z,3.97
2022-11-06T22:59:05.453Z,4.02
2022-11-06T23:01:41.199Z,4.07
2022-11-06T23:04:16.650Z,4.11
2022-11-06T23:06:45.662Z,4.14
2022-11-06T23:09:14.517Z,4.16
2022-11-06T23:11:46.130Z,4.18
2022-11-06T23:14:14.949Z,4.20
2022-11-06T23:16:59.184Z,4.22
2022-11-06T23:19:29.741Z,4.24
2022-11-06T23:22:16.902Z,4.28
2022-11-06T23:24:45.685Z,4.34
2022-11-06T23:27:13.980Z,4.41
2022-11-06T23:29:42.168Z,4.49
2022-11-06T23:32:10.499Z,4.55
2022-11-06T23:34:38.757Z,4.61
2022-11-06T23:37:06.898Z,4.66
2022-11-06T23:39:35.116Z,4.72
2022-11-06T23:42:03.196Z,4.78
2022-11-06T23:44:49.985Z,4.84
2022-11-06T23:47:18.454Z,4.88
2022-11-06T23:49:46.481Z,4.91
2022-11-06T23:52:14.937Z,4.93
2022-11-06T23:54:43.627Z,4.94
2022-11-06T23:57:12.938Z,4.97
2022-11-06T23:59:41.424Z,4.99
